sensor_id;sensor_type;location;lat;lon;timestamp;noise_LAeq;noise_LA_min;noise_LA_max;noise_LA01;noise_LA95
59284;Laerm;45056;47.602;9.886;2023-04-21T00:00:01;42.72;38.21;54.78;;
59284;Laerm;45056;47.602;9.886;2023-04-21T00:02:33;42.57;38.52;54.37;;
59284;Laerm;45056;47.602;9.886;2023-04-21T00:05:08;41.24;38.52;45.94;;
59284;Laerm;45056;47.602;9.886;2023-04-21T00:07:38;41.26;38.05;47.79;;
59284;Laerm;45056;47.602;9.886;2023-04-21T00:10:07;41.26;38.05;44.97;;
59284;Laerm;45056;47.602;9.886;2023-04-21T00:12:35;42.73;38.21;54.00;;
59284;Laerm;45056;47.602;9.886;2023-04-21T00:15:05;42.59;38.81;52.86;;
59284;Laerm;45056;47.602;9.886;2023-04-21T00:17:33;41.12;37.88;45.33;;
59284;Laerm;45056;47.602;9.886;2023-04-21T00:20:02;41.11;38.52;45.39;;
59284;Laerm;45056;47.602;9.886;2023-04-21T00:22:34;41.16;38.21;45.17;;
59284;Laerm;45056;47.602;9.886;2023-04-21T00:25:02;43.50;38.67;55.60;;
59284;Laerm;45056;47.602;9.886;2023-04-21T00:27:30;42.66;38.95;57.25;;
59284;Laerm;45056;47.602;9.886;2023-04-21T00:29:58;41.24;38.52;48.70;;
59284;Laerm;45056;47.602;9.886;2023-04-21T00:32:26;43.05;38.21;54.22;;
59284;Laerm;45056;47.602;9.886;2023-04-21T00:34:54;41.14;38.37;45.23;;
59284;Laerm;45056;47.602;9.886;2023-04-21T00:37:22;43.40;38.37;59.15;;
59284;Laerm;45056;47.602;9.886;2023-04-21T00:39:51;41.01;37.70;45.45;;
59284;Laerm;45056;47.602;9.886;2023-04-21T00:42:19;40.97;38.05;45.36;;
59284;Laerm;45056;47.602;9.886;2023-04-21T00:44:47;41.52;37.88;45.51;;
59284;Laerm;45056;47.602;9.886;2023-04-21T00:47:15;42.23;38.05;54.36;;
59284;Laerm;45056;47.602;9.886;2023-04-21T00:49:45;41.10;38.37;44.47;;
59284;Laerm;45056;47.602;9.886;2023-04-21T00:52:16;41.24;38.52;44.62;;
59284;Laerm;45056;47.602;9.886;2023-04-21T00:54:45;41.50;38.02;45.97;;
59284;Laerm;45056;47.602;9.886;2023-04-21T00:57:15;41.84;38.37;49.72;;
59284;Laerm;45056;47.602;9.886;2023-04-21T00:59:44;41.52;38.05;44.62;;
59284;Laerm;45056;47.602;9.886;2023-04-21T01:02:14;44.95;38.81;60.63;;
59284;Laerm;45056;47.602;9.886;2023-04-21T01:04:42;41.46;37.12;45.04;;
59284;Laerm;45056;47.602;9.886;2023-04-21T01:07:11;41.61;38.67;44.83;;
59284;Laerm;45056;47.602;9.886;2023-04-21T01:09:39;42.42;38.95;49.43;;
59284;Laerm;45056;47.602;9.886;2023-04-21T01:12:10;41.83;38.95;44.23;;
59284;Laerm;45056;47.602;9.886;2023-04-21T01:14:40;41.90;39.46;44.19;;
59284;Laerm;45056;47.602;9.886;2023-04-21T01:17:08;42.22;39.34;53.27;;
59284;Laerm;45056;47.602;9.886;2023-04-21T01:19:40;43.63;38.95;58.57;;
59284;Laerm;45056;47.602;9.886;2023-04-21T01:22:12;41.82;38.21;44.62;;
59284;Laerm;45056;47.602;9.886;2023-04-21T01:24:45;41.77;38.67;44.54;;
59284;Laerm;45056;47.602;9.886;2023-04-21T01:27:17;43.95;39.34;59.01;;
59284;Laerm;45056;47.602;9.886;2023-04-21T01:29:49;42.69;38.95;54.82;;
59284;Laerm;45056;47.602;9.886;2023-04-21T01:32:22;42.27;38.67;53.66;;
59284;Laerm;45056;47.602;9.886;2023-04-21T01:34:51;41.70;38.67;45.39;;
59284;Laerm;45056;47.602;9.886;2023-04-21T01:37:26;42.20;39.21;49.74;;
59284;Laerm;45056;47.602;9.886;2023-04-21T01:39:59;45.22;39.34;60.19;;
59284;Laerm;45056;47.602;9.886;2023-04-21T01:42:29;42.27;39.58;46.59;;
59284;Laerm;45056;47.602;9.886;2023-04-21T01:44:57;42.40;39.70;45.17;;
59284;Laerm;45056;47.602;9.886;2023-04-21T01:47:25;43.04;39.21;54.82;;
59284;Laerm;45056;47.602;9.886;2023-04-21T01:49:54;41.69;38.81;44.39;;
59284;Laerm;45056;47.602;9.886;2023-04-21T01:52:23;42.58;38.67;56.40;;
59284;Laerm;45056;47.602;9.886;2023-04-21T01:54:51;41.48;38.67;43.81;;
59284;Laerm;45056;47.602;9.886;2023-04-21T01:57:19;41.64;39.08;44.23;;
59284;Laerm;45056;47.602;9.886;2023-04-21T01:59:47;43.35;39.34;57.73;;
59284;Laerm;45056;47.602;9.886;2023-04-21T02:02:16;44.60;39.57;54.61;;
59284;Laerm;45056;47.602;9.886;2023-04-21T02:04:44;42.98;39.92;55.42;;
59284;Laerm;45056;47.602;9.886;2023-04-21T02:07:12;41.86;39.46;43.90;;
59284;Laerm;45056;47.602;9.886;2023-04-21T02:09:41;42.01;39.58;44.54;;
59284;Laerm;45056;47.602;9.886;2023-04-21T02:12:09;41.86;39.11;43.90;;
59284;Laerm;45056;47.602;9.886;2023-04-21T02:14:37;43.57;38.81;56.98;;
59284;Laerm;45056;47.602;9.886;2023-04-21T02:17:05;42.59;39.70;53.51;;
59284;Laerm;45056;47.602;9.886;2023-04-21T02:19:33;42.28;40.13;44.94;;
59284;Laerm;45056;47.602;9.886;2023-04-21T02:22:03;42.37;39.68;44.83;;
59284;Laerm;45056;47.602;9.886;2023-04-21T02:24:32;42.59;39.92;47.02;;
59284;Laerm;45056;47.602;9.886;2023-04-21T02:27:01;42.22;39.70;44.73;;
59284;Laerm;45056;47.602;9.886;2023-04-21T02:29:29;42.44;39.46;51.29;;
59284;Laerm;45056;47.602;9.886;2023-04-21T02:31:57;43.53;38.95;58.03;;
59284;Laerm;45056;47.602;9.886;2023-04-21T02:34:25;42.37;39.58;48.85;;
59284;Laerm;45056;47.602;9.886;2023-04-21T02:36:53;42.12;39.57;44.94;;
59284;Laerm;45056;47.602;9.886;2023-04-21T02:39:21;43.06;38.81;55.00;;
59284;Laerm;45056;47.602;9.886;2023-04-21T02:41:50;43.81;38.81;55.58;;
59284;Laerm;45056;47.602;9.886;2023-04-21T02:44:20;44.21;38.95;55.38;;
59284;Laerm;45056;47.602;9.886;2023-04-21T02:46:47;44.76;39.23;58.42;;
59284;Laerm;45056;47.602;9.886;2023-04-21T02:49:15;43.98;39.58;57.26;;
59284;Laerm;45056;47.602;9.886;2023-04-21T02:51:43;46.63;38.95;61.09;;
59284;Laerm;45056;47.602;9.886;2023-04-21T02:54:11;42.92;39.08;55.00;;
59284;Laerm;45056;47.602;9.886;2023-04-21T02:56:39;42.21;39.08;50.17;;
59284;Laerm;45056;47.602;9.886;2023-04-21T02:59:07;43.15;39.58;55.32;;
59284;Laerm;45056;47.602;9.886;2023-04-21T03:01:38;45.06;39.21;54.20;;
59284;Laerm;45056;47.602;9.886;2023-04-21T03:04:06;43.53;39.81;57.71;;
59284;Laerm;45056;47.602;9.886;2023-04-21T03:06:34;44.09;40.03;56.29;;
59284;Laerm;45056;47.602;9.886;2023-04-21T03:09:02;49.77;40.03;66.67;;
59284;Laerm;45056;47.602;9.886;2023-04-21T03:11:30;43.34;40.03;54.17;;
59284;Laerm;45056;47.602;9.886;2023-04-21T03:13:58;44.33;40.43;53.31;;
59284;Laerm;45056;47.602;9.886;2023-04-21T03:16:26;46.01;40.23;61.17;;
59284;Laerm;45056;47.602;9.886;2023-04-21T03:18:56;44.01;40.13;54.24;;
59284;Laerm;45056;47.602;9.886;2023-04-21T03:21:24;43.78;40.36;57.56;;
59284;Laerm;45056;47.602;9.886;2023-04-21T03:23:52;49.24;41.38;64.75;;
59284;Laerm;45056;47.602;9.886;2023-04-21T03:26:20;47.50;41.22;62.37;;
59284;Laerm;45056;47.602;9.886;2023-04-21T03:28:48;47.86;40.62;62.02;;
59284;Laerm;45056;47.602;9.886;2023-04-21T03:31:16;44.96;40.71;55.24;;
59284;Laerm;45056;47.602;9.886;2023-04-21T03:33:44;45.71;39.58;58.87;;
59284;Laerm;45056;47.602;9.886;2023-04-21T03:36:13;45.05;39.58;56.94;;
59284;Laerm;45056;47.602;9.886;2023-04-21T03:38:41;44.42;39.58;59.53;;
59284;Laerm;45056;47.602;9.886;2023-04-21T03:41:09;44.57;40.53;54.49;;
59284;Laerm;45056;47.602;9.886;2023-04-21T03:43:37;46.88;41.46;56.55;;
59284;Laerm;45056;47.602;9.886;2023-04-21T03:46:05;46.88;39.70;60.75;;
59284;Laerm;45056;47.602;9.886;2023-04-21T03:48:33;46.77;40.43;58.41;;
59284;Laerm;45056;47.602;9.886;2023-04-21T03:51:01;45.48;40.36;58.20;;
59284;Laerm;45056;47.602;9.886;2023-04-21T03:53:31;46.63;40.23;59.00;;
59284;Laerm;45056;47.602;9.886;2023-04-21T03:55:59;47.34;40.71;58.62;;
59284;Laerm;45056;47.602;9.886;2023-04-21T03:58:27;45.82;40.13;60.03;;
59284;Laerm;45056;47.602;9.886;2023-04-21T04:00:55;46.59;39.70;58.87;;
59284;Laerm;45056;47.602;9.886;2023-04-21T04:03:23;54.84;39.81;67.47;;
59284;Laerm;45056;47.602;9.886;2023-04-21T04:05:51;46.01;40.03;61.09;;
59284;Laerm;45056;47.602;9.886;2023-04-21T04:08:19;48.63;39.34;63.15;;
59284;Laerm;45056;47.602;9.886;2023-04-21T04:10:48;51.81;39.70;63.16;;
59284;Laerm;45056;47.602;9.886;2023-04-21T04:13:16;52.10;39.34;63.75;;
59284;Laerm;45056;47.602;9.886;2023-04-21T04:15:45;52.29;39.81;66.00;;
59284;Laerm;45056;47.602;9.886;2023-04-21T04:18:13;52.11;39.89;61.95;;
59284;Laerm;45056;47.602;9.886;2023-04-21T04:20:40;51.72;39.70;61.97;;
59284;Laerm;45056;47.602;9.886;2023-04-21T04:23:08;51.28;39.58;62.57;;
59284;Laerm;45056;47.602;9.886;2023-04-21T04:25:36;51.38;39.70;62.27;;
59284;Laerm;45056;47.602;9.886;2023-04-21T04:28:06;48.72;40.98;61.43;;
59284;Laerm;45056;47.602;9.886;2023-04-21T04:30:34;50.43;40.62;60.63;;
59284;Laerm;45056;47.602;9.886;2023-04-21T04:33:03;47.99;40.33;63.96;;
59284;Laerm;45056;47.602;9.886;2023-04-21T04:35:31;52.45;40.62;63.51;;
59284;Laerm;45056;47.602;9.886;2023-04-21T04:37:59;52.86;40.98;63.76;;
59284;Laerm;45056;47.602;9.886;2023-04-21T04:40:27;51.14;41.30;63.67;;
59284;Laerm;45056;47.602;9.886;2023-04-21T04:42:56;51.83;40.43;64.04;;
59284;Laerm;45056;47.602;9.886;2023-04-21T04:45:25;53.69;41.14;67.21;;
59284;Laerm;45056;47.602;9.886;2023-04-21T04:47:54;51.52;40.98;61.86;;
59284;Laerm;45056;47.602;9.886;2023-04-21T04:50:22;49.56;40.62;61.05;;
59284;Laerm;45056;47.602;9.886;2023-04-21T04:52:50;51.43;40.13;63.37;;
59284;Laerm;45056;47.602;9.886;2023-04-21T04:55:18;47.27;40.13;58.44;;
59284;Laerm;45056;47.602;9.886;2023-04-21T04:57:46;49.37;40.71;61.18;;
59284;Laerm;45056;47.602;9.886;2023-04-21T05:00:14;56.26;41.61;73.52;;
59284;Laerm;45056;47.602;9.886;2023-04-21T05:02:44;56.33;41.53;72.99;;
59284;Laerm;45056;47.602;9.886;2023-04-21T05:05:12;49.90;40.71;70.12;;
59284;Laerm;45056;47.602;9.886;2023-04-21T05:07:40;52.77;41.82;69.95;;
59284;Laerm;45056;47.602;9.886;2023-04-21T05:10:08;50.22;40.13;69.78;;
59284;Laerm;45056;47.602;9.886;2023-04-21T05:12:36;47.55;40.98;57.90;;
59284;Laerm;45056;47.602;9.886;2023-04-21T05:15:05;51.02;39.70;66.32;;
59284;Laerm;45056;47.602;9.886;2023-04-21T05:17:33;49.26;41.75;66.54;;
59284;Laerm;45056;47.602;9.886;2023-04-21T05:20:05;51.06;41.30;69.33;;
59284;Laerm;45056;47.602;9.886;2023-04-21T05:22:36;50.11;41.75;68.50;;
59284;Laerm;45056;47.602;9.886;2023-04-21T05:25:05;49.61;41.38;68.32;;
59284;Laerm;45056;47.602;9.886;2023-04-21T05:27:33;47.84;41.82;60.74;;
59284;Laerm;45056;47.602;9.886;2023-04-21T05:30:01;48.70;41.82;60.03;;
59284;Laerm;45056;47.602;9.886;2023-04-21T05:32:29;49.90;41.38;68.57;;
59284;Laerm;45056;47.602;9.886;2023-04-21T05:34:57;50.02;42.22;66.40;;
59284;Laerm;45056;47.602;9.886;2023-04-21T05:37:27;53.98;42.88;71.37;;
59284;Laerm;45056;47.602;9.886;2023-04-21T05:39:55;51.26;43.24;66.58;;
59284;Laerm;45056;47.602;9.886;2023-04-21T05:42:23;53.73;43.04;70.47;;
59284;Laerm;45056;47.602;9.886;2023-04-21T05:44:51;52.21;42.16;68.40;;
59284;Laerm;45056;47.602;9.886;2023-04-21T05:47:20;53.30;43.39;73.19;;
59284;Laerm;45056;47.602;9.886;2023-04-21T05:49:50;53.85;42.03;71.91;;
59284;Laerm;45056;47.602;9.886;2023-04-21T05:52:19;53.75;42.71;73.33;;
59284;Laerm;45056;47.602;9.886;2023-04-21T05:54:49;52.42;42.47;70.72;;
59284;Laerm;45056;47.602;9.886;2023-04-21T05:57:17;49.96;40.71;66.29;;
59284;Laerm;45056;47.602;9.886;2023-04-21T05:59:45;47.19;40.71;56.81;;
59284;Laerm;45056;47.602;9.886;2023-04-21T06:02:13;48.48;41.30;57.63;;
59284;Laerm;45056;47.602;9.886;2023-04-21T06:04:41;52.38;41.53;68.76;;
59284;Laerm;45056;47.602;9.886;2023-04-21T06:07:10;52.78;40.71;71.55;;
59284;Laerm;45056;47.602;9.886;2023-04-21T06:09:39;52.19;41.53;66.85;;
59284;Laerm;45056;47.602;9.886;2023-04-21T06:12:08;52.56;41.61;71.88;;
59284;Laerm;45056;47.602;9.886;2023-04-21T06:14:37;50.82;42.29;71.08;;
59284;Laerm;45056;47.602;9.886;2023-04-21T06:17:04;48.77;41.61;61.57;;
59284;Laerm;45056;47.602;9.886;2023-04-21T06:19:36;48.66;41.14;64.20;;
59284;Laerm;45056;47.602;9.886;2023-04-21T06:22:05;52.01;41.22;68.06;;
59284;Laerm;45056;47.602;9.886;2023-04-21T06:24:33;50.18;41.89;69.68;;
59284;Laerm;45056;47.602;9.886;2023-04-21T06:27:01;51.72;42.88;67.81;;
59284;Laerm;45056;47.602;9.886;2023-04-21T06:29:30;48.14;40.80;61.44;;
59284;Laerm;45056;47.602;9.886;2023-04-21T06:31:58;50.84;41.68;65.16;;
59284;Laerm;45056;47.602;9.886;2023-04-21T06:34:26;52.03;41.30;66.02;;
59284;Laerm;45056;47.602;9.886;2023-04-21T06:36:54;49.68;40.98;63.44;;
59284;Laerm;45056;47.602;9.886;2023-04-21T06:41:51;52.67;40.33;69.04;;
59284;Laerm;45056;47.602;9.886;2023-04-21T06:44:19;51.80;41.53;69.63;;
59284;Laerm;45056;47.602;9.886;2023-04-21T06:46:49;51.31;42.09;67.88;;
59284;Laerm;45056;47.602;9.886;2023-04-21T06:49:17;52.19;40.43;70.35;;
59284;Laerm;45056;47.602;9.886;2023-04-21T06:51:45;54.12;42.03;70.66;;
59284;Laerm;45056;47.602;9.886;2023-04-21T06:54:13;52.90;41.22;66.73;;
59284;Laerm;45056;47.602;9.886;2023-04-21T06:56:41;53.26;42.29;67.79;;
59284;Laerm;45056;47.602;9.886;2023-04-21T06:59:09;54.37;41.22;66.58;;
59284;Laerm;45056;47.602;9.886;2023-04-21T07:01:37;53.50;40.98;68.07;;
59284;Laerm;45056;47.602;9.886;2023-04-21T07:04:06;53.32;41.06;70.06;;
59284;Laerm;45056;47.602;9.886;2023-04-21T07:06:34;51.53;41.75;72.89;;
59284;Laerm;45056;47.602;9.886;2023-04-21T07:09:02;51.69;40.62;69.28;;
59284;Laerm;45056;47.602;9.886;2023-04-21T07:11:31;53.95;41.30;77.69;;
59284;Laerm;45056;47.602;9.886;2023-04-21T07:13:59;57.66;41.53;71.82;;
59284;Laerm;45056;47.602;9.886;2023-04-21T07:16:28;55.57;40.53;71.64;;
59284;Laerm;45056;47.602;9.886;2023-04-21T07:18:56;50.93;40.13;68.50;;
59284;Laerm;45056;47.602;9.886;2023-04-21T07:21:25;50.47;40.43;67.22;;
59284;Laerm;45056;47.602;9.886;2023-04-21T07:23:54;54.11;40.89;70.99;;
59284;Laerm;45056;47.602;9.886;2023-04-21T07:26:22;56.78;40.71;75.55;;
59284;Laerm;45056;47.602;9.886;2023-04-21T07:28:50;54.58;39.92;71.00;;
59284;Laerm;45056;47.602;9.886;2023-04-21T07:31:18;52.40;40.89;69.92;;
59284;Laerm;45056;47.602;9.886;2023-04-21T07:33:46;49.32;41.46;63.25;;
59284;Laerm;45056;47.602;9.886;2023-04-21T07:36:14;54.38;41.14;69.86;;
59284;Laerm;45056;47.602;9.886;2023-04-21T07:38:43;51.63;41.38;64.36;;
59284;Laerm;45056;47.602;9.886;2023-04-21T07:41:12;54.25;41.06;68.46;;
59284;Laerm;45056;47.602;9.886;2023-04-21T07:43:40;53.16;40.98;70.22;;
59284;Laerm;45056;47.602;9.886;2023-04-21T07:46:08;52.58;40.43;67.11;;
59284;Laerm;45056;47.602;9.886;2023-04-21T07:48:36;49.81;40.89;61.62;;
59284;Laerm;45056;47.602;9.886;2023-04-21T07:51:05;49.98;41.96;63.73;;
59284;Laerm;45056;47.602;9.886;2023-04-21T07:53:33;54.09;41.68;70.73;;
59284;Laerm;45056;47.602;9.886;2023-04-21T07:56:03;46.94;39.70;56.08;;
59284;Laerm;45056;47.602;9.886;2023-04-21T07:58:33;48.46;40.23;57.55;;
59284;Laerm;45056;47.602;9.886;2023-04-21T08:01:01;51.98;42.59;63.39;;
59284;Laerm;45056;47.602;9.886;2023-04-21T08:03:29;48.37;40.62;58.42;;
59284;Laerm;45056;47.602;9.886;2023-04-21T08:05:57;49.31;41.14;64.91;;
59284;Laerm;45056;47.602;9.886;2023-04-21T08:08:25;52.55;42.29;72.63;;
59284;Laerm;45056;47.602;9.886;2023-04-21T08:10:52;56.78;40.43;73.06;;
59284;Laerm;45056;47.602;9.886;2023-04-21T08:13:22;56.76;42.16;70.42;;
59284;Laerm;45056;47.602;9.886;2023-04-21T08:15:51;53.94;41.38;68.98;;
59284;Laerm;45056;47.602;9.886;2023-04-21T08:18:20;50.61;41.53;69.79;;
59284;Laerm;45056;47.602;9.886;2023-04-21T08:20:49;51.70;40.89;68.19;;
59284;Laerm;45056;47.602;9.886;2023-04-21T08:23:18;51.85;42.35;67.91;;
59284;Laerm;45056;47.602;9.886;2023-04-21T08:25:46;50.68;39.58;69.64;;
59284;Laerm;45056;47.602;9.886;2023-04-21T08:28:14;53.13;40.98;70.68;;
59284;Laerm;45056;47.602;9.886;2023-04-21T08:30:43;51.63;41.61;69.61;;
59284;Laerm;45056;47.602;9.886;2023-04-21T08:33:11;50.36;41.89;68.42;;
59284;Laerm;45056;47.602;9.886;2023-04-21T08:35:40;51.98;42.71;67.99;;
59284;Laerm;45056;47.602;9.886;2023-04-21T08:38:08;50.20;40.89;70.92;;
59284;Laerm;45056;47.602;9.886;2023-04-21T08:40:38;55.02;42.03;73.05;;
59284;Laerm;45056;47.602;9.886;2023-04-21T08:43:07;50.74;42.88;64.14;;
59284;Laerm;45056;47.602;9.886;2023-04-21T08:45:38;50.99;42.82;67.84;;
59284;Laerm;45056;47.602;9.886;2023-04-21T08:48:13;49.04;41.89;62.52;;
59284;Laerm;45056;47.602;9.886;2023-04-21T08:50:48;50.28;42.29;60.07;;
59284;Laerm;45056;47.602;9.886;2023-04-21T08:53:17;51.89;41.82;64.46;;
59284;Laerm;45056;47.602;9.886;2023-04-21T08:55:47;52.14;42.22;65.02;;
59284;Laerm;45056;47.602;9.886;2023-04-21T08:58:19;46.61;40.53;63.13;;
59284;Laerm;45056;47.602;9.886;2023-04-21T09:00:48;50.49;43.54;61.10;;
59284;Laerm;45056;47.602;9.886;2023-04-21T09:03:24;49.16;42.59;67.43;;
59284;Laerm;45056;47.602;9.886;2023-04-21T09:06:00;49.71;42.82;65.42;;
59284;Laerm;45056;47.602;9.886;2023-04-21T09:08:28;53.76;43.39;67.87;;
59284;Laerm;45056;47.602;9.886;2023-04-21T09:10:58;53.20;42.09;70.23;;
59284;Laerm;45056;47.602;9.886;2023-04-21T09:13:32;55.89;41.75;69.48;;
59284;Laerm;45056;47.602;9.886;2023-04-21T09:16:03;53.86;41.22;67.88;;
59284;Laerm;45056;47.602;9.886;2023-04-21T09:18:33;52.85;42.71;67.37;;
59284;Laerm;45056;47.602;9.886;2023-04-21T09:21:08;52.03;40.63;66.48;;
59284;Laerm;45056;47.602;9.886;2023-04-21T09:23:46;50.19;41.14;62.21;;
59284;Laerm;45056;47.602;9.886;2023-04-21T09:26:16;51.41;41.46;68.01;;
59284;Laerm;45056;47.602;9.886;2023-04-21T09:28:47;52.83;41.96;68.19;;
59284;Laerm;45056;47.602;9.886;2023-04-21T09:31:18;51.99;42.76;66.81;;
59284;Laerm;45056;47.602;9.886;2023-04-21T09:33:51;46.82;40.71;55.49;;
59284;Laerm;45056;47.602;9.886;2023-04-21T09:36:22;45.95;40.53;56.86;;
59284;Laerm;45056;47.602;9.886;2023-04-21T09:38:55;50.18;41.48;62.19;;
59284;Laerm;45056;47.602;9.886;2023-04-21T09:41:24;50.26;41.89;62.81;;
59284;Laerm;45056;47.602;9.886;2023-04-21T09:43:53;52.77;41.30;70.85;;
59284;Laerm;45056;47.602;9.886;2023-04-21T09:46:22;46.25;39.70;64.21;;
59284;Laerm;45056;47.602;9.886;2023-04-21T09:48:55;48.20;42.22;60.82;;
59284;Laerm;45056;47.602;9.886;2023-04-21T09:51:26;50.08;39.92;62.94;;
59284;Laerm;45056;47.602;9.886;2023-04-21T09:53:59;53.15;41.38;69.74;;
59284;Laerm;45056;47.602;9.886;2023-04-21T09:56:35;54.20;40.89;71.93;;
59284;Laerm;45056;47.602;9.886;2023-04-21T09:59:18;52.29;41.53;71.76;;
59284;Laerm;45056;47.602;9.886;2023-04-21T10:01:48;49.96;40.89;58.21;;
59284;Laerm;45056;47.602;9.886;2023-04-21T10:04:19;58.73;42.03;72.03;;
59284;Laerm;45056;47.602;9.886;2023-04-21T10:06:50;55.79;41.89;68.45;;
59284;Laerm;45056;47.602;9.886;2023-04-21T10:09:22;49.54;42.35;65.24;;
59284;Laerm;45056;47.602;9.886;2023-04-21T10:11:53;48.83;41.14;63.43;;
59284;Laerm;45056;47.602;9.886;2023-04-21T10:14:24;50.31;40.71;63.93;;
59284;Laerm;45056;47.602;9.886;2023-04-21T10:16:55;48.41;41.96;60.91;;
59284;Laerm;45056;47.602;9.886;2023-04-21T10:19:26;49.64;42.59;60.59;;
59284;Laerm;45056;47.602;9.886;2023-04-21T10:21:55;48.78;41.61;62.70;;
59284;Laerm;45056;47.602;9.886;2023-04-21T10:24:28;47.35;42.29;60.75;;
59284;Laerm;45056;47.602;9.886;2023-04-21T10:26:57;54.18;41.61;70.48;;
59284;Laerm;45056;47.602;9.886;2023-04-21T10:29:29;47.09;41.46;55.10;;
59284;Laerm;45056;47.602;9.886;2023-04-21T10:31:57;47.14;41.61;57.03;;
59284;Laerm;45056;47.602;9.886;2023-04-21T10:34:36;50.67;42.29;64.34;;
59284;Laerm;45056;47.602;9.886;2023-04-21T10:37:16;49.51;42.22;63.06;;
59284;Laerm;45056;47.602;9.886;2023-04-21T10:39:52;52.95;42.47;72.62;;
59284;Laerm;45056;47.602;9.886;2023-04-21T10:42:28;52.32;41.53;72.06;;
59284;Laerm;45056;47.602;9.886;2023-04-21T10:45:09;54.92;40.71;73.20;;
59284;Laerm;45056;47.602;9.886;2023-04-21T10:47:48;54.35;42.29;71.69;;
59284;Laerm;45056;47.602;9.886;2023-04-21T10:50:21;55.10;42.35;72.68;;
59284;Laerm;45056;47.602;9.886;2023-04-21T10:53:06;52.06;41.61;65.13;;
59284;Laerm;45056;47.602;9.886;2023-04-21T10:55:35;48.03;41.22;56.02;;
59284;Laerm;45056;47.602;9.886;2023-04-21T10:58:06;52.51;42.65;69.84;;
59284;Laerm;45056;47.602;9.886;2023-04-21T11:00:36;52.03;41.68;69.48;;
59284;Laerm;45056;47.602;9.886;2023-04-21T11:03:06;48.80;41.75;63.32;;
59284;Laerm;45056;47.602;9.886;2023-04-21T11:05:39;48.85;41.38;59.67;;
59284;Laerm;45056;47.602;9.886;2023-04-21T11:08:13;50.95;41.68;65.35;;
59284;Laerm;45056;47.602;9.886;2023-04-21T11:10:48;47.91;40.80;63.25;;
59284;Laerm;45056;47.602;9.886;2023-04-21T11:13:18;49.52;40.80;63.41;;
59284;Laerm;45056;47.602;9.886;2023-04-21T11:16:03;48.64;41.82;60.21;;
59284;Laerm;45056;47.602;9.886;2023-04-21T11:18:43;54.01;41.46;77.29;;
59284;Laerm;45056;47.602;9.886;2023-04-21T11:21:15;49.02;41.61;62.65;;
59284;Laerm;45056;47.602;9.886;2023-04-21T11:23:50;50.71;41.75;72.45;;
59284;Laerm;45056;47.602;9.886;2023-04-21T11:26:30;53.98;41.41;70.42;;
59284;Laerm;45056;47.602;9.886;2023-04-21T11:29:01;54.22;40.71;70.47;;
59284;Laerm;45056;47.602;9.886;2023-04-21T11:31:29;53.64;41.06;70.23;;
59284;Laerm;45056;47.602;9.886;2023-04-21T11:33:58;48.04;40.98;61.47;;
59284;Laerm;45056;47.602;9.886;2023-04-21T11:36:28;48.16;40.71;56.34;;
59284;Laerm;45056;47.602;9.886;2023-04-21T11:38:56;51.41;40.62;71.08;;
59284;Laerm;45056;47.602;9.886;2023-04-21T11:41:25;47.59;41.14;58.63;;
59284;Laerm;45056;47.602;9.886;2023-04-21T11:43:52;46.87;41.14;56.11;;
59284;Laerm;45056;47.602;9.886;2023-04-21T11:46:25;50.37;41.96;64.44;;
59284;Laerm;45056;47.602;9.886;2023-04-21T11:49:02;52.11;40.98;66.31;;
59284;Laerm;45056;47.602;9.886;2023-04-21T11:51:38;50.81;41.68;67.16;;
59284;Laerm;45056;47.602;9.886;2023-04-21T11:54:09;51.13;41.22;68.73;;
59284;Laerm;45056;47.602;9.886;2023-04-21T11:56:39;52.21;40.62;66.55;;
59284;Laerm;45056;47.602;9.886;2023-04-21T11:59:09;55.83;41.30;72.72;;
59284;Laerm;45056;47.602;9.886;2023-04-21T12:01:42;57.30;42.03;71.74;;
59284;Laerm;45056;47.602;9.886;2023-04-21T12:04:16;55.16;41.82;70.43;;
59284;Laerm;45056;47.602;9.886;2023-04-21T12:06:55;55.37;41.14;68.71;;
59284;Laerm;45056;47.602;9.886;2023-04-21T12:09:23;53.62;41.96;68.28;;
59284;Laerm;45056;47.602;9.886;2023-04-21T12:11:55;53.32;42.88;65.84;;
59284;Laerm;45056;47.602;9.886;2023-04-21T12:14:25;48.72;41.46;60.25;;
59284;Laerm;45056;47.602;9.886;2023-04-21T12:16:55;49.57;42.59;66.28;;
59284;Laerm;45056;47.602;9.886;2023-04-21T12:19:34;47.91;41.14;61.23;;
59284;Laerm;45056;47.602;9.886;2023-04-21T12:22:08;48.65;42.88;62.07;;
59284;Laerm;45056;47.602;9.886;2023-04-21T12:24:37;50.03;41.22;63.61;;
59284;Laerm;45056;47.602;9.886;2023-04-21T12:27:06;51.80;40.89;65.53;;
59284;Laerm;45056;47.602;9.886;2023-04-21T12:29:35;49.20;41.46;62.39;;
59284;Laerm;45056;47.602;9.886;2023-04-21T12:32:05;49.11;41.14;67.35;;
59284;Laerm;45056;47.602;9.886;2023-04-21T12:34:33;48.73;42.71;59.31;;
59284;Laerm;45056;47.602;9.886;2023-04-21T12:37:02;50.53;41.61;66.18;;
59284;Laerm;45056;47.602;9.886;2023-04-21T12:39:32;47.43;42.16;65.44;;
59284;Laerm;45056;47.602;9.886;2023-04-21T12:42:00;48.83;41.89;57.95;;
59284;Laerm;45056;47.602;9.886;2023-04-21T12:44:28;52.88;41.68;73.12;;
59284;Laerm;45056;47.602;9.886;2023-04-21T12:46:57;48.49;41.30;64.07;;
59284;Laerm;45056;47.602;9.886;2023-04-21T12:49:25;50.25;41.14;69.04;;
59284;Laerm;45056;47.602;9.886;2023-04-21T12:51:53;47.60;41.68;54.49;;
59284;Laerm;45056;47.602;9.886;2023-04-21T12:54:21;47.62;41.06;55.20;;
59284;Laerm;45056;47.602;9.886;2023-04-21T12:56:50;46.84;41.14;55.59;;
59284;Laerm;45056;47.602;9.886;2023-04-21T12:59:18;49.67;42.35;61.95;;
59284;Laerm;45056;47.602;9.886;2023-04-21T13:01:47;48.14;42.29;56.59;;
59284;Laerm;45056;47.602;9.886;2023-04-21T13:04:15;48.07;41.96;55.09;;
59284;Laerm;45056;47.602;9.886;2023-04-21T13:06:43;48.83;42.98;61.87;;
59284;Laerm;45056;47.602;9.886;2023-04-21T13:09:11;47.73;42.98;57.71;;
59284;Laerm;45056;47.602;9.886;2023-04-21T13:11:39;51.34;40.80;63.05;;
59284;Laerm;45056;47.602;9.886;2023-04-21T13:14:08;49.30;41.46;62.93;;
59284;Laerm;45056;47.602;9.886;2023-04-21T13:16:36;50.23;41.14;60.46;;
59284;Laerm;45056;47.602;9.886;2023-04-21T13:19:04;49.20;40.71;67.87;;
59284;Laerm;45056;47.602;9.886;2023-04-21T13:21:32;47.34;42.76;61.37;;
59284;Laerm;45056;47.602;9.886;2023-04-21T13:24:00;50.14;42.29;62.99;;
59284;Laerm;45056;47.602;9.886;2023-04-21T13:26:31;51.09;41.30;65.36;;
59284;Laerm;45056;47.602;9.886;2023-04-21T13:29:01;49.50;40.80;63.37;;
59284;Laerm;45056;47.602;9.886;2023-04-21T13:31:30;48.49;41.68;60.42;;
59284;Laerm;45056;47.602;9.886;2023-04-21T13:34:01;47.69;41.06;56.39;;
59284;Laerm;45056;47.602;9.886;2023-04-21T13:36:29;49.58;41.89;63.88;;
59284;Laerm;45056;47.602;9.886;2023-04-21T13:38:58;49.39;41.14;62.16;;
59284;Laerm;45056;47.602;9.886;2023-04-21T13:41:27;49.14;42.59;59.70;;
59284;Laerm;45056;47.602;9.886;2023-04-21T13:43:55;50.89;42.41;65.97;;
59284;Laerm;45056;47.602;9.886;2023-04-21T13:46:23;50.15;42.09;61.55;;
59284;Laerm;45056;47.602;9.886;2023-04-21T13:48:52;47.33;40.62;55.16;;
59284;Laerm;45056;47.602;9.886;2023-04-21T13:51:20;51.50;43.09;65.51;;
59284;Laerm;45056;47.602;9.886;2023-04-21T13:53:48;49.72;42.47;63.45;;
59284;Laerm;45056;47.602;9.886;2023-04-21T13:56:16;49.95;42.47;61.05;;
59284;Laerm;45056;47.602;9.886;2023-04-21T13:58:44;49.62;41.53;63.30;;